Time;durP1;ratioP1;P1;durP2;ratioP2;P2;SDS_P1;SDS_P2;PMS_P1;PMS_P2;Temp;Humidity;BMP_temperature;BMP_pressure;BME280_temperature;BME280_humidity;BME280_pressure;Samples;Min_cycle;Max_cycle;Signal;HPM_P1;HPM_P2
2024/01/17 00:00:05;;;;;;;9.43;8.00;;;-1.70;77.30;;;;;;5079154;28;20579;-61
2024/01/17 00:02:32;;;;;;;9.80;8.20;;;-1.70;76.60;;;;;;5079715;28;20209;-62
2024/01/17 00:04:58;;;;;;;9.43;8.33;;;-1.80;76.60;;;;;;5069113;28;20761;-62
2024/01/17 00:07:25;;;;;;;9.80;8.87;;;-1.90;76.10;;;;;;5059001;28;20284;-62
2024/01/17 00:09:51;;;;;;;10.50;7.97;;;-1.90;76.70;;;;;;5072078;28;20200;-62
2024/01/17 00:12:18;;;;;;;10.00;8.30;;;-2.00;76.80;;;;;;5057395;28;20209;-62
2024/01/17 00:14:44;;;;;;;8.10;7.30;;;-2.00;76.60;;;;;;5072279;28;20201;-63
2024/01/17 00:17:12;;;;;;;8.57;7.53;;;-2.00;76.70;;;;;;5070972;28;20213;-63
2024/01/17 00:19:38;;;;;;;8.57;7.77;;;-2.00;77.00;;;;;;5071675;28;20201;-62
2024/01/17 00:22:04;;;;;;;10.03;8.00;;;-1.80;77.40;;;;;;5065605;28;20251;-62
2024/01/17 00:24:31;;;;;;;10.20;8.17;;;-2.00;76.10;;;;;;5066412;28;20308;-62
2024/01/17 00:26:57;;;;;;;8.43;7.63;;;-1.90;59.00;;;;;;5080648;28;20221;-63
2024/01/17 00:29:24;;;;;;;9.10;7.37;;;-1.90;59.40;;;;;;5066259;28;20237;-63
2024/01/17 00:31:50;;;;;;;8.80;7.80;;;-1.90;59.90;;;;;;5069572;28;20210;-63
2024/01/17 00:34:17;;;;;;;8.37;7.57;;;-1.80;59.60;;;;;;5078888;28;20244;-62
2024/01/17 00:36:43;;;;;;;8.03;7.23;;;-1.60;59.10;;;;;;5079597;28;20663;-63
2024/01/17 00:39:12;;;;;;;9.53;7.30;;;-1.60;59.50;;;;;;5066207;28;20231;-62
2024/01/17 00:41:39;;;;;;;8.10;6.70;;;-1.50;59.60;;;;;;5056118;28;20666;-63
2024/01/17 00:44:05;;;;;;;10.67;8.07;;;-1.60;57.90;;;;;;5080222;28;20200;-62
2024/01/17 00:46:32;;;;;;;8.87;7.10;;;-1.90;58.40;;;;;;5083088;28;20252;-62
2024/01/17 00:48:58;;;;;;;8.13;7.33;;;-2.00;58.70;;;;;;5071535;28;20695;-62
2024/01/17 00:51:25;;;;;;;10.20;7.90;;;-1.90;58.90;;;;;;5064643;28;20210;-62
2024/01/17 00:53:51;;;;;;;7.50;6.77;;;-1.90;59.20;;;;;;5061164;28;20652;-62
2024/01/17 00:56:18;;;;;;;10.70;7.47;;;-1.80;58.40;;;;;;5064977;28;20225;-62
2024/01/17 00:58:44;;;;;;;9.00;8.07;;;-1.70;58.70;;;;;;5073784;28;20288;-63
2024/01/17 01:01:11;;;;;;;9.47;7.07;;;-1.80;58.20;;;;;;5078439;28;20285;-62
2024/01/17 01:03:37;;;;;;;8.33;6.80;;;-1.70;57.80;;;;;;5075672;28;20622;-62
2024/01/17 01:06:04;;;;;;;7.83;6.97;;;-1.60;57.90;;;;;;5073798;28;20251;-63
2024/01/17 01:08:31;;;;;;;6.97;6.37;;;-1.60;57.50;;;;;;5079221;28;20624;-63
2024/01/17 01:10:57;;;;;;;7.07;6.47;;;-1.60;57.90;;;;;;5071390;28;20232;-62
2024/01/17 01:13:24;;;;;;;8.07;6.43;;;-1.50;57.90;;;;;;5057762;28;20225;-62
2024/01/17 01:15:50;;;;;;;7.43;6.73;;;-1.60;57.80;;;;;;5070800;28;20898;-62
2024/01/17 01:18:17;;;;;;;7.43;6.53;;;-1.50;57.90;;;;;;5076543;28;20232;-62
2024/01/17 01:20:43;;;;;;;7.83;6.60;;;-1.60;57.90;;;;;;5079896;28;20209;-62
2024/01/17 01:23:10;;;;;;;7.43;6.60;;;-1.50;57.90;;;;;;5078295;28;20236;-62
2024/01/17 01:25:36;;;;;;;8.07;6.80;;;-1.40;58.00;;;;;;5070902;28;20260;-62
2024/01/17 01:28:03;;;;;;;8.13;7.33;;;-1.30;58.10;;;;;;5073409;28;20251;-63
2024/01/17 01:30:30;;;;;;;7.73;6.97;;;-1.30;58.70;;;;;;5068068;28;20251;-62
2024/01/17 01:32:57;;;;;;;7.83;6.37;;;-1.40;58.80;;;;;;5075291;28;20589;-63
2024/01/17 01:35:23;;;;;;;7.03;6.33;;;-1.40;58.90;;;;;;5069837;28;20253;-63
2024/01/17 01:37:50;;;;;;;6.93;6.33;;;-1.30;59.20;;;;;;5075743;28;20209;-62
2024/01/17 01:40:16;;;;;;;7.10;6.40;;;-1.20;59.60;;;;;;5079767;28;20706;-62
2024/01/17 01:42:43;;;;;;;7.77;6.90;;;-1.10;58.70;;;;;;5082825;28;20216;-62
2024/01/17 01:45:10;;;;;;;8.33;6.73;;;-1.10;58.30;;;;;;5052620;28;20284;-63
2024/01/17 01:47:36;;;;;;;7.70;7.00;;;-1.10;58.30;;;;;;5073536;28;20244;-61
2024/01/17 01:50:05;;;;;;;7.37;6.67;;;-1.10;58.30;;;;;;5082784;28;20204;-62
2024/01/17 01:52:31;;;;;;;6.87;6.23;;;-1.20;58.80;;;;;;5076500;28;20290;-63
2024/01/17 01:54:58;;;;;;;7.30;6.60;;;-1.00;58.90;;;;;;5071488;28;20313;-63
2024/01/17 01:57:24;;;;;;;7.23;6.53;;;-1.10;59.00;;;;;;5072356;28;20638;-63
2024/01/17 01:59:51;;;;;;;8.00;6.50;;;-1.20;59.40;;;;;;5056299;28;20206;-62
2024/01/17 02:02:17;;;;;;;6.83;6.13;;;-1.20;59.70;;;;;;5082492;28;20688;-63
2024/01/17 02:04:44;;;;;;;9.10;6.37;;;-1.00;60.00;;;;;;5075961;28;20248;-62
2024/01/17 02:07:10;;;;;;;6.83;6.13;;;-1.10;61.00;;;;;;5073948;28;20286;-60
2024/01/17 02:09:37;;;;;;;7.23;6.53;;;-1.10;61.60;;;;;;5074828;28;20267;-62
2024/01/17 02:12:03;;;;;;;7.27;6.53;;;-1.00;63.30;;;;;;5071094;28;20233;-62
2024/01/17 02:14:30;;;;;;;7.70;6.90;;;-0.90;63.50;;;;;;5073921;28;20617;-62
2024/01/17 02:16:56;;;;;;;7.47;6.00;;;-0.80;63.90;;;;;;5074254;28;20261;-62
2024/01/17 02:19:23;;;;;;;6.60;6.00;;;-0.80;64.50;;;;;;5076990;28;20287;-63
2024/01/17 02:21:49;;;;;;;6.97;6.27;;;-0.80;65.40;;;;;;5079965;28;20253;-62
2024/01/17 02:24:16;;;;;;;6.37;5.77;;;-0.80;65.60;;;;;;5085661;28;20235;-62
2024/01/17 02:26:42;;;;;;;6.83;5.80;;;-0.70;67.00;;;;;;5076943;28;20228;-62
2024/01/17 02:29:09;;;;;;;6.60;6.00;;;-0.60;66.80;;;;;;5064137;28;20240;-63
2024/01/17 02:31:35;;;;;;;6.07;5.57;;;-0.70;67.50;;;;;;5068413;28;20236;-62
2024/01/17 02:34:02;;;;;;;6.30;5.70;;;-0.70;69.80;;;;;;5082436;28;20225;-63
2024/01/17 02:36:28;;;;;;;6.07;5.47;;;-0.60;71.30;;;;;;5082038;28;20318;-62
2024/01/17 02:38:55;;;;;;;6.40;5.80;;;-0.60;72.40;;;;;;5077939;28;20420;-62
2024/01/17 02:41:21;;;;;;;6.73;5.67;;;-0.50;73.80;;;;;;5080809;28;20204;-61
2024/01/17 02:43:47;;;;;;;6.70;6.10;;;-0.50;75.00;;;;;;5079747;28;20221;-62
2024/01/17 02:46:14;;;;;;;14.33;6.67;;;-0.50;76.10;;;;;;5074038;28;20245;-62
2024/01/17 02:48:40;;;;;;;6.43;5.83;;;-0.40;77.60;;;;;;5087941;28;20240;-62
2024/01/17 02:51:07;;;;;;;6.20;5.70;;;-0.40;78.20;;;;;;5073474;28;20255;-62
2024/01/17 02:53:34;;;;;;;6.10;5.60;;;-0.30;79.20;;;;;;5062347;28;20790;-62
2024/01/17 02:56:00;;;;;;;5.93;5.33;;;-0.30;80.50;;;;;;5074902;28;20224;-62
2024/01/17 02:58:27;;;;;;;5.33;4.90;;;-0.10;81.30;;;;;;5070045;28;20737;-62
2024/01/17 03:00:53;;;;;;;5.73;5.23;;;0.00;81.60;;;;;;5087163;28;20201;-62
2024/01/17 03:03:20;;;;;;;5.80;5.20;;;0.00;82.40;;;;;;5081502;28;20244;-62
2024/01/17 03:05:46;;;;;;;6.47;5.40;;;0.00;83.80;;;;;;5071046;28;20280;-61
2024/01/17 03:08:13;;;;;;;5.90;5.37;;;0.10;83.40;;;;;;5065868;28;20235;-62
2024/01/17 03:10:39;;;;;;;5.63;5.00;;;0.10;85.00;;;;;;5073008;28;20828;-62
2024/01/17 03:13:05;;;;;;;6.10;5.07;;;0.20;84.70;;;;;;5080257;28;20235;-62
2024/01/17 03:15:32;;;;;;;6.13;5.53;;;0.20;83.70;;;;;;5084536;28;20640;-62
2024/01/17 03:17:59;;;;;;;6.30;5.80;;;0.20;82.40;;;;;;5079156;28;20245;-62
2024/01/17 03:20:25;;;;;;;5.60;5.10;;;0.30;89.20;;;;;;5066354;28;20240;-62
2024/01/17 03:22:51;;;;;;;5.50;4.93;;;0.40;89.40;;;;;;5081724;28;20266;-63
2024/01/17 03:25:18;;;;;;;5.30;4.80;;;0.40;89.30;;;;;;5084704;28;20220;-63
2024/01/17 03:27:45;;;;;;;5.67;5.17;;;0.50;88.50;;;;;;5080743;28;20287;-62
2024/01/17 03:30:11;;;;;;;5.80;5.30;;;0.40;89.80;;;;;;5083427;28;20213;-60
2024/01/17 03:32:38;;;;;;;5.80;5.30;;;0.50;81.10;;;;;;5075977;28;20237;-62
2024/01/17 03:35:04;;;;;;;6.90;6.30;;;0.40;82.50;;;;;;5072579;28;20248;-62
2024/01/17 03:37:31;;;;;;;5.73;5.23;;;0.40;83.40;;;;;;5079542;28;20685;-62
2024/01/17 03:39:57;;;;;;;5.50;5.00;;;0.40;82.80;;;;;;5063720;28;20286;-63
2024/01/17 03:42:24;;;;;;;5.53;5.00;;;0.50;82.80;;;;;;5084185;28;20270;-62
2024/01/17 03:44:50;;;;;;;5.13;4.63;;;0.60;82.20;;;;;;5072473;28;20235;-63
2024/01/17 03:47:17;;;;;;;5.37;4.87;;;0.60;81.10;;;;;;5080108;28;20225;-62
2024/01/17 03:49:43;;;;;;;6.27;4.90;;;0.60;81.30;;;;;;5078290;28;20205;-62
2024/01/17 03:52:10;;;;;;;6.00;5.00;;;0.50;81.30;;;;;;5080007;28;20242;-62
2024/01/17 03:54:37;;;;;;;5.30;4.80;;;0.60;82.20;;;;;;5083900;28;20318;-62
2024/01/17 03:57:03;;;;;;;5.60;5.10;;;0.60;81.90;;;;;;5080816;28;20219;-62
2024/01/17 03:59:30;;;;;;;7.73;5.13;;;0.60;81.60;;;;;;5070696;28;20210;-62
2024/01/17 04:01:56;;;;;;;5.80;5.23;;;0.60;82.20;;;;;;5086623;28;20456;-62
2024/01/17 04:04:23;;;;;;;6.50;4.93;;;0.60;83.00;;;;;;5084519;28;20205;-62
2024/01/17 04:06:49;;;;;;;5.63;5.03;;;0.70;82.80;;;;;;5077298;28;20226;-62
2024/01/17 04:09:16;;;;;;;4.87;4.47;;;0.60;82.40;;;;;;5073192;28;20228;-63
2024/01/17 04:11:42;;;;;;;5.50;5.10;;;0.70;83.20;;;;;;5072262;28;20229;-63
2024/01/17 04:14:09;;;;;;;5.40;5.00;;;0.80;82.70;;;;;;5069653;28;20254;-62
2024/01/17 04:16:35;;;;;;;5.60;4.70;;;0.80;83.30;;;;;;5079751;28;20683;-61
2024/01/17 04:19:02;;;;;;;5.63;5.10;;;0.70;84.00;;;;;;5072545;28;20265;-62
2024/01/17 04:21:29;;;;;;;5.57;5.10;;;0.80;84.10;;;;;;5081392;28;20263;-62
2024/01/17 04:23:56;;;;;;;5.50;5.10;;;0.80;83.90;;;;;;5080884;28;20206;-62
2024/01/17 04:26:23;;;;;;;6.83;5.47;;;0.80;84.40;;;;;;5063516;28;20248;-62
2024/01/17 04:28:49;;;;;;;5.20;4.70;;;0.80;84.20;;;;;;5068426;28;20200;-63
2024/01/17 04:31:16;;;;;;;5.30;4.90;;;0.90;84.70;;;;;;5083416;28;20240;-62
2024/01/17 04:33:42;;;;;;;4.77;4.37;;;0.80;83.90;;;;;;5082818;28;20196;-62
2024/01/17 04:36:09;;;;;;;5.93;5.37;;;0.80;84.50;;;;;;5066968;28;22371;-62
2024/01/17 04:38:35;;;;;;;5.40;4.90;;;0.80;84.80;;;;;;5058762;28;20231;-62
2024/01/17 04:41:02;;;;;;;5.63;5.07;;;0.80;86.10;;;;;;5079318;28;20231;-62
2024/01/17 04:43:29;;;;;;;5.77;4.93;;;0.80;85.70;;;;;;5079624;28;20235;-62
2024/01/17 04:45:55;;;;;;;5.40;4.53;;;0.80;85.60;;;;;;5082252;28;20344;-62
2024/01/17 04:48:22;;;;;;;5.37;4.97;;;0.90;86.20;;;;;;5073036;28;20201;-62
2024/01/17 04:50:52;;;;;;;5.63;5.20;;;0.90;86.20;;;;;;5079319;28;20406;-62
2024/01/17 04:53:18;;;;;;;4.87;4.00;;;0.90;85.70;;;;;;5059346;28;20267;-62
2024/01/17 04:55:45;;;;;;;4.40;4.10;;;0.90;85.50;;;;;;5082907;28;20229;-62
2024/01/17 04:58:11;;;;;;;4.80;4.40;;;0.90;85.10;;;;;;5076015;28;20645;-62
2024/01/17 05:00:38;;;;;;;4.57;4.20;;;1.00;85.40;;;;;;5083343;28;20210;-61
2024/01/17 05:03:04;;;;;;;4.53;4.13;;;1.00;84.30;;;;;;5072245;28;20230;-62
2024/01/17 05:05:31;;;;;;;4.37;4.03;;;1.00;84.70;;;;;;5073275;28;20280;-62
2024/01/17 05:07:58;;;;;;;4.40;4.10;;;1.00;83.50;;;;;;5082325;28;20213;-62
2024/01/17 05:10:25;;;;;;;4.83;4.40;;;1.00;84.40;;;;;;5070342;28;20286;-62
2024/01/17 05:12:51;;;;;;;4.60;4.20;;;1.00;84.00;;;;;;5072810;28;20217;-62
2024/01/17 05:15:18;;;;;;;4.90;3.90;;;0.90;83.00;;;;;;5070209;28;20296;-62
2024/01/17 05:17:44;;;;;;;4.73;4.30;;;1.00;82.50;;;;;;5072179;28;20238;-62
2024/01/17 05:20:11;;;;;;;4.10;3.70;;;1.00;82.20;;;;;;5078566;28;20683;-62
2024/01/17 05:22:39;;;;;;;4.17;3.77;;;1.00;82.10;;;;;;5074251;28;20591;-62
2024/01/17 05:25:06;;;;;;;4.37;3.97;;;1.00;81.40;;;;;;5076424;28;20226;-60
2024/01/17 05:27:33;;;;;;;4.20;3.80;;;1.00;81.00;;;;;;5071592;28;20309;-62
2024/01/17 05:29:59;;;;;;;3.77;3.33;;;1.00;81.00;;;;;;5070137;28;20267;-62
2024/01/17 05:32:26;;;;;;;6.23;4.90;;;1.00;80.30;;;;;;5071752;28;20218;-62
2024/01/17 05:34:54;;;;;;;4.57;4.17;;;1.00;79.90;;;;;;5079425;28;20219;-62
2024/01/17 05:37:21;;;;;;;4.33;4.03;;;1.00;80.10;;;;;;5087256;28;20212;-62
2024/01/17 05:39:48;;;;;;;4.27;3.97;;;1.00;80.30;;;;;;5076702;28;20580;-62
2024/01/17 05:42:14;;;;;;;4.40;4.07;;;1.00;80.10;;;;;;5086022;28;20210;-61
2024/01/17 05:44:41;;;;;;;4.90;4.40;;;1.00;80.00;;;;;;5079539;28;20206;-62
2024/01/17 05:47:07;;;;;;;4.23;3.93;;;1.00;80.10;;;;;;5069825;28;20229;-61
2024/01/17 05:49:34;;;;;;;4.93;4.43;;;1.10;78.10;;;;;;5081786;28;20285;-61
2024/01/17 05:52:00;;;;;;;4.67;4.37;;;1.00;78.50;;;;;;5086042;28;20621;-62
2024/01/17 05:54:27;;;;;;;4.60;4.20;;;1.00;79.60;;;;;;5083540;28;20252;-61
2024/01/17 05:56:53;;;;;;;4.87;4.07;;;1.00;77.80;;;;;;5072363;28;20295;-62
2024/01/17 05:59:20;;;;;;;4.27;3.97;;;1.00;77.80;;;;;;5086456;28;20200;-61
2024/01/17 06:01:47;;;;;;;5.17;3.80;;;1.00;77.80;;;;;;5084919;28;20746;-62
2024/01/17 06:04:13;;;;;;;4.67;4.27;;;1.10;77.80;;;;;;5087922;28;20714;-62
2024/01/17 06:06:40;;;;;;;4.43;4.03;;;1.10;77.90;;;;;;5082914;28;20296;-62
2024/01/17 06:09:07;;;;;;;4.93;4.43;;;1.10;77.90;;;;;;5086109;28;20241;-62
2024/01/17 06:11:33;;;;;;;5.27;3.97;;;1.20;77.60;;;;;;5086501;28;20305;-62
2024/01/17 06:14:00;;;;;;;5.37;4.37;;;1.30;77.30;;;;;;5083622;28;20247;-62
2024/01/17 06:16:27;;;;;;;5.10;4.70;;;1.20;78.00;;;;;;5066454;28;20227;-61
2024/01/17 06:18:54;;;;;;;4.50;4.20;;;1.20;78.00;;;;;;5074018;28;20202;-61
2024/01/17 06:21:21;;;;;;;4.93;3.90;;;1.20;79.10;;;;;;5082178;28;20220;-59
2024/01/17 06:23:47;;;;;;;5.17;4.77;;;1.20;79.30;;;;;;5074116;28;20215;-61
2024/01/17 06:26:14;;;;;;;4.80;4.40;;;1.30;79.30;;;;;;5077834;28;20364;-61
2024/01/17 06:28:40;;;;;;;4.53;4.13;;;1.30;79.00;;;;;;5075245;28;20207;-61
2024/01/17 06:31:07;;;;;;;8.77;5.07;;;1.50;77.70;;;;;;5066155;28;20534;-61
2024/01/17 06:33:33;;;;;;;4.83;4.40;;;1.40;77.50;;;;;;5058614;28;20206;-61
2024/01/17 06:36:00;;;;;;;5.13;4.63;;;1.30;78.00;;;;;;5065841;28;20251;-61
2024/01/17 06:38:27;;;;;;;5.87;5.33;;;1.30;79.00;;;;;;5080841;28;20214;-60
2024/01/17 06:40:53;;;;;;;4.97;4.60;;;1.20;79.60;;;;;;5084665;28;20198;-61
2024/01/17 06:43:20;;;;;;;5.47;4.97;;;1.30;78.80;;;;;;5080264;28;20214;-61
2024/01/17 06:45:47;;;;;;;6.83;5.20;;;1.30;79.20;;;;;;5084373;28;20226;-61
2024/01/17 06:48:13;;;;;;;5.67;5.00;;;1.20;80.20;;;;;;5081381;28;20206;-61
2024/01/17 06:50:40;;;;;;;5.70;5.20;;;1.20;80.70;;;;;;5074343;28;20242;-61
2024/01/17 06:53:06;;;;;;;7.27;5.10;;;1.20;81.40;;;;;;5065774;28;20209;-61
2024/01/17 06:55:33;;;;;;;5.43;4.97;;;1.20;81.60;;;;;;5063167;28;20237;-62
2024/01/17 06:57:59;;;;;;;5.97;4.90;;;1.20;81.10;;;;;;5070123;28;20242;-62
2024/01/17 07:00:26;;;;;;;5.93;5.33;;;1.20;81.60;;;;;;5081476;28;20717;-62
2024/01/17 07:02:53;;;;;;;5.70;5.10;;;1.20;80.90;;;;;;5080936;28;20251;-61
2024/01/17 07:05:21;;;;;;;6.23;5.17;;;1.20;80.80;;;;;;5075628;28;20655;-61
2024/01/17 07:07:48;;;;;;;8.07;5.50;;;1.20;82.10;;;;;;5081338;28;20638;-61
2024/01/17 07:10:14;;;;;;;6.10;5.50;;;1.30;81.60;;;;;;5081621;28;20302;-62
2024/01/17 07:12:41;;;;;;;5.87;5.37;;;1.40;80.50;;;;;;5081634;28;20835;-61
2024/01/17 07:15:07;;;;;;;6.03;5.00;;;1.40;81.10;;;;;;5086702;28;20261;-62
2024/01/17 07:17:34;;;;;;;6.73;5.13;;;1.30;80.80;;;;;;5082015;28;20214;-62
2024/01/17 07:20:00;;;;;;;5.93;5.13;;;1.30;81.30;;;;;;5074947;28;20212;-62
2024/01/17 07:22:27;;;;;;;10.90;5.23;;;1.30;82.10;;;;;;5079349;28;20246;-62
2024/01/17 07:24:53;;;;;;;5.87;4.60;;;1.40;81.40;;;;;;5079251;28;20242;-62
2024/01/17 07:27:20;;;;;;;6.57;5.00;;;1.40;80.10;;;;;;5072516;28;20583;-62
2024/01/17 07:29:46;;;;;;;5.30;4.43;;;1.40;79.40;;;;;;5082377;28;20253;-61
2024/01/17 07:32:13;;;;;;;6.63;4.70;;;1.50;78.50;;;;;;5084224;28;20637;-61
2024/01/17 07:34:40;;;;;;;5.93;4.70;;;1.50;78.10;;;;;;5069795;28;20223;-61
2024/01/17 07:37:06;;;;;;;5.80;4.67;;;1.50;78.00;;;;;;5079140;28;20254;-61
2024/01/17 07:39:33;;;;;;;8.80;5.00;;;1.50;77.70;;;;;;5079935;28;20339;-61
2024/01/17 07:41:59;;;;;;;6.87;4.67;;;1.50;78.10;;;;;;5063755;28;20233;-61
2024/01/17 07:44:29;;;;;;;6.53;4.57;;;1.50;77.90;;;;;;5071170;28;20238;-62
2024/01/17 07:46:55;;;;;;;5.40;4.90;;;1.50;76.70;;;;;;5089627;28;20225;-61
2024/01/17 07:49:22;;;;;;;5.20;4.53;;;1.50;77.50;;;;;;5079502;28;20296;-61
2024/01/17 07:51:48;;;;;;;4.93;4.53;;;1.60;77.40;;;;;;5061610;28;20659;-61
2024/01/17 07:54:15;;;;;;;7.63;4.70;;;1.60;76.70;;;;;;5073081;28;20226;-62
2024/01/17 07:56:41;;;;;;;5.90;5.17;;;1.50;75.20;;;;;;5071845;28;20230;-61
2024/01/17 07:59:08;;;;;;;8.47;5.00;;;1.50;75.00;;;;;;5074842;28;20231;-60
2024/01/17 08:01:34;;;;;;;4.87;4.47;;;1.60;75.00;;;;;;5080736;28;20692;-61
2024/01/17 08:04:01;;;;;;;7.50;4.90;;;1.70;75.10;;;;;;5077531;28;20204;-62
2024/01/17 08:06:28;;;;;;;7.17;5.10;;;1.60;75.00;;;;;;5070800;28;20242;-62
2024/01/17 08:08:56;;;;;;;8.33;4.77;;;1.60;75.40;;;;;;5067649;28;20633;-61
2024/01/17 08:11:22;;;;;;;9.17;4.80;;;1.70;74.90;;;;;;5078388;28;20714;-61
2024/01/17 08:13:49;;;;;;;7.50;4.80;;;1.60;75.50;;;;;;5065033;28;20218;-61
2024/01/17 08:16:15;;;;;;;10.07;4.77;;;1.70;75.30;;;;;;5074196;28;20227;-61
2024/01/17 08:18:42;;;;;;;11.47;5.07;;;1.70;75.00;;;;;;5079921;28;20224;-61
2024/01/17 08:21:08;;;;;;;8.90;4.93;;;1.70;74.90;;;;;;5086603;28;20194;-61
2024/01/17 08:23:36;;;;;;;7.27;4.30;;;1.70;74.50;;;;;;5084408;28;20240;-62
2024/01/17 08:26:03;;;;;;;10.97;4.80;;;1.80;73.80;;;;;;5079872;28;20219;-62
2024/01/17 08:28:29;;;;;;;6.27;5.07;;;1.90;73.30;;;;;;5084203;28;20260;-61
2024/01/17 08:30:56;;;;;;;8.93;4.67;;;1.80;72.90;;;;;;5063329;28;20234;-62
2024/01/17 08:33:22;;;;;;;7.23;4.63;;;1.80;73.80;;;;;;5077418;28;20203;-61
2024/01/17 08:35:49;;;;;;;11.97;4.97;;;1.80;73.90;;;;;;5085801;28;23015;-60
2024/01/17 08:38:16;;;;;;;13.27;4.83;;;1.80;73.80;;;;;;5088706;28;20233;-61
2024/01/17 08:40:42;;;;;;;7.60;4.77;;;1.90;73.90;;;;;;5072186;28;20213;-61
2024/01/17 08:43:09;;;;;;;10.50;4.67;;;1.80;74.10;;;;;;5080745;28;20584;-61
2024/01/17 08:45:35;;;;;;;10.57;4.30;;;1.90;74.10;;;;;;5055580;28;20301;-60
2024/01/17 08:48:02;;;;;;;5.10;4.03;;;1.90;74.20;;;;;;5069226;28;20203;-61
2024/01/17 08:50:28;;;;;;;8.10;4.73;;;1.90;74.70;;;;;;5068670;28;20335;-62
2024/01/17 08:52:55;;;;;;;8.17;4.50;;;1.90;74.90;;;;;;5060933;28;20593;-61
2024/01/17 08:55:21;;;;;;;6.63;5.20;;;1.90;74.80;;;;;;5069994;28;20251;-64
2024/01/17 08:57:48;;;;;;;6.97;5.27;;;1.90;75.70;;;;;;5063653;28;20215;-60
2024/01/17 09:00:15;;;;;;;11.90;5.00;;;1.90;76.30;;;;;;5078245;28;20597;-60
2024/01/17 09:02:41;;;;;;;5.63;4.33;;;1.90;76.50;;;;;;5059288;28;20308;-61
2024/01/17 09:05:08;;;;;;;8.13;4.93;;;2.00;76.50;;;;;;5077326;28;20218;-61
2024/01/17 09:07:35;;;;;;;8.60;4.53;;;2.00;77.20;;;;;;5081491;28;20274;-60
2024/01/17 09:10:02;;;;;;;6.20;4.50;;;1.90;77.90;;;;;;5075401;28;20209;-61
2024/01/17 09:12:29;;;;;;;7.43;4.70;;;1.90;78.60;;;;;;5061634;28;20205;-61
2024/01/17 09:14:55;;;;;;;6.83;4.57;;;1.90;78.60;;;;;;5073184;28;20208;-61
2024/01/17 09:17:22;;;;;;;6.07;4.33;;;1.90;78.60;;;;;;5066131;28;20590;-61
2024/01/17 09:19:48;;;;;;;5.77;4.33;;;2.00;78.70;;;;;;5073221;28;20205;-61
2024/01/17 09:22:15;;;;;;;7.80;5.50;;;2.00;80.60;;;;;;5062899;28;20301;-60
2024/01/17 09:24:41;;;;;;;5.23;4.37;;;2.00;79.50;;;;;;5060893;28;20287;-60
2024/01/17 09:27:08;;;;;;;5.40;4.47;;;1.90;80.80;;;;;;5076662;28;20302;-60
2024/01/17 09:29:35;;;;;;;6.70;4.00;;;2.40;84.30;;;;;;5069403;28;20713;-61
2024/01/17 09:32:02;;;;;;;8.03;4.40;;;2.30;81.10;;;;;;5068477;28;20213;-61
2024/01/17 09:34:28;;;;;;;9.40;5.40;;;2.20;80.00;;;;;;5058868;28;20246;-61
2024/01/17 09:36:55;;;;;;;8.10;4.60;;;2.20;80.50;;;;;;5072649;28;20267;-61
2024/01/17 09:39:22;;;;;;;6.53;4.33;;;2.10;81.40;;;;;;5067913;28;20214;-61
2024/01/17 09:41:48;;;;;;;5.50;4.40;;;2.10;80.60;;;;;;5073847;28;20204;-60
2024/01/17 09:44:15;;;;;;;5.50;4.47;;;2.10;81.30;;;;;;5075739;28;20695;-61
2024/01/17 09:46:41;;;;;;;4.87;4.37;;;2.10;80.70;;;;;;5066835;28;20252;-61
2024/01/17 09:49:08;;;;;;;6.30;5.00;;;2.10;81.20;;;;;;5067108;28;20292;-61
2024/01/17 09:51:34;;;;;;;6.30;4.73;;;2.20;82.20;;;;;;5064615;28;20209;-60
2024/01/17 09:54:02;;;;;;;5.67;4.53;;;2.20;81.90;;;;;;5050855;28;20239;-59
2024/01/17 09:56:29;;;;;;;5.10;4.33;;;2.20;80.70;;;;;;5041757;28;20267;-60
2024/01/17 09:58:57;;;;;;;6.57;4.27;;;2.20;81.10;;;;;;5068598;28;20211;-60
2024/01/17 10:01:23;;;;;;;4.70;4.30;;;2.20;81.10;;;;;;5063087;28;20223;-61
2024/01/17 10:03:51;;;;;;;4.60;4.20;;;2.30;80.80;;;;;;5073458;28;20220;-61
2024/01/17 10:06:17;;;;;;;5.50;4.10;;;2.30;80.20;;;;;;5076050;28;20229;-61
2024/01/17 10:08:44;;;;;;;4.60;4.20;;;2.30;80.50;;;;;;5072247;28;20208;-61
2024/01/17 10:11:12;;;;;;;4.33;4.00;;;2.30;81.00;;;;;;5046647;28;20300;-61
2024/01/17 10:13:38;;;;;;;6.23;4.53;;;2.30;82.20;;;;;;5052915;28;20210;-61
2024/01/17 10:16:05;;;;;;;6.20;4.50;;;2.30;81.20;;;;;;5074628;28;20281;-61
2024/01/17 10:18:31;;;;;;;10.23;4.67;;;2.40;81.70;;;;;;5081713;28;20740;-61
2024/01/17 10:20:58;;;;;;;6.83;4.43;;;2.40;81.90;;;;;;5072452;28;20240;-59
2024/01/17 10:23:24;;;;;;;6.57;5.83;;;2.40;82.50;;;;;;5060352;28;20295;-61
2024/01/17 10:25:51;;;;;;;7.47;4.87;;;2.40;82.40;;;;;;5081422;28;20753;-62
2024/01/17 10:28:17;;;;;;;5.00;4.50;;;2.40;82.40;;;;;;5075364;28;20212;-62
2024/01/17 10:30:44;;;;;;;9.13;4.90;;;2.30;83.80;;;;;;5079175;28;20270;-62
2024/01/17 10:33:10;;;;;;;6.67;5.37;;;2.30;83.80;;;;;;5079111;28;20208;-60
2024/01/17 10:35:37;;;;;;;9.00;5.50;;;2.30;84.50;;;;;;5062976;28;20231;-63
2024/01/17 10:38:03;;;;;;;6.90;5.13;;;2.30;84.80;;;;;;5069499;28;20262;-63
2024/01/17 10:40:29;;;;;;;6.90;5.60;;;2.50;85.40;;;;;;5058115;28;20659;-65
2024/01/17 10:42:56;;;;;;;5.53;5.03;;;2.50;83.80;;;;;;5092116;28;20638;-61
2024/01/17 10:45:23;;;;;;;6.23;5.60;;;2.40;84.10;;;;;;5060453;28;20248;-63
2024/01/17 10:47:50;;;;;;;6.30;5.03;;;2.50;84.20;;;;;;5075307;28;20212;-62
2024/01/17 10:50:16;;;;;;;6.27;5.30;;;2.60;84.00;;;;;;5079552;28;20215;-61
2024/01/17 10:52:43;;;;;;;10.10;6.00;;;2.60;83.10;;;;;;5089088;28;20480;-64
2024/01/17 10:55:10;;;;;;;5.40;4.83;;;2.70;83.60;;;;;;5076724;28;20228;-61
2024/01/17 10:57:36;;;;;;;9.00;6.57;;;2.70;83.60;;;;;;5073060;28;20316;-61
2024/01/17 11:00:04;;;;;;;6.13;5.40;;;2.70;83.30;;;;;;5065415;28;20962;-61
2024/01/17 11:02:30;;;;;;;9.87;6.67;;;2.80;83.70;;;;;;5070885;28;20243;-61
2024/01/17 11:04:57;;;;;;;6.97;5.97;;;2.80;83.10;;;;;;5072549;28;20216;-61
2024/01/17 11:07:24;;;;;;;8.93;5.20;;;2.70;83.80;;;;;;5079161;28;20900;-61
2024/01/17 11:09:50;;;;;;;7.40;5.40;;;2.90;83.80;;;;;;5079091;28;20214;-61
2024/01/17 11:12:17;;;;;;;10.40;5.53;;;2.80;83.10;;;;;;5070580;28;20578;-61
2024/01/17 11:14:43;;;;;;;8.63;6.80;;;2.70;85.60;;;;;;5041386;28;20240;-60
2024/01/17 11:17:10;;;;;;;7.93;7.00;;;2.80;85.10;;;;;;5077868;28;20254;-61
2024/01/17 11:19:36;;;;;;;8.40;6.33;;;2.60;84.80;;;;;;5076947;28;20213;-67
2024/01/17 11:22:03;;;;;;;8.03;6.47;;;2.80;87.50;;;;;;5079716;28;20209;-61
2024/01/17 11:24:30;;;;;;;6.10;5.60;;;2.90;86.50;;;;;;5059547;28;20691;-61
2024/01/17 11:26:57;;;;;;;8.77;6.37;;;2.80;85.90;;;;;;5040196;28;20228;-61
2024/01/17 11:29:23;;;;;;;8.10;5.27;;;2.70;85.80;;;;;;5069258;28;20227;-60
2024/01/17 11:31:50;;;;;;;7.30;5.90;;;2.70;86.30;;;;;;5064755;28;20234;-60
2024/01/17 11:34:16;;;;;;;8.20;5.33;;;2.70;87.20;;;;;;5064743;28;20204;-59
2024/01/17 11:36:43;;;;;;;7.30;5.83;;;2.70;86.20;;;;;;5066005;28;20235;-60
2024/01/17 11:39:10;;;;;;;7.77;6.10;;;2.80;87.40;;;;;;5081717;28;20244;-59
2024/01/17 11:41:38;;;;;;;6.90;5.50;;;2.90;86.80;;;;;;5071085;28;20281;-59
2024/01/17 11:44:05;;;;;;;6.43;5.43;;;2.90;86.30;;;;;;5077205;28;20245;-60
2024/01/17 11:46:32;;;;;;;6.03;5.07;;;2.90;86.30;;;;;;5052783;28;20259;-59
2024/01/17 11:48:58;;;;;;;6.57;5.50;;;2.80;87.00;;;;;;5049626;28;20620;-60
2024/01/17 11:51:25;;;;;;;7.43;6.07;;;2.80;86.90;;;;;;5068923;28;20239;-60
2024/01/17 11:53:53;;;;;;;5.80;5.30;;;2.90;86.60;;;;;;5067049;28;20657;-60
2024/01/17 11:56:20;;;;;;;6.07;5.50;;;2.90;86.60;;;;;;5063861;28;20231;-60
2024/01/17 11:58:46;;;;;;;9.00;5.60;;;2.90;86.70;;;;;;5075580;28;20247;-59
2024/01/17 12:01:13;;;;;;;7.33;6.00;;;2.90;87.00;;;;;;5058447;28;20205;-60
2024/01/17 12:03:40;;;;;;;7.23;5.47;;;2.90;87.30;;;;;;5067262;28;20216;-60
2024/01/17 12:06:06;;;;;;;6.00;4.83;;;2.90;88.20;;;;;;5066279;28;20311;-60
2024/01/17 12:08:32;;;;;;;6.30;5.27;;;3.00;88.10;;;;;;5075665;28;20235;-58
2024/01/17 12:10:58;;;;;;;7.43;5.07;;;3.00;88.10;;;;;;5071019;28;20246;-58
2024/01/17 12:13:25;;;;;;;6.87;4.90;;;3.00;88.70;;;;;;5081337;28;20207;-58
2024/01/17 12:15:51;;;;;;;5.63;5.13;;;2.90;90.60;;;;;;5061377;28;20796;-59
2024/01/17 12:18:18;;;;;;;7.03;5.10;;;3.00;97.50;;;;;;5072735;28;20209;-60
2024/01/17 12:20:45;;;;;;;5.93;5.03;;;3.00;99.40;;;;;;5070868;28;20207;-59
2024/01/17 12:23:11;;;;;;;6.40;5.37;;;3.10;98.50;;;;;;5073125;28;20688;-60
2024/01/17 12:25:38;;;;;;;8.73;5.73;;;3.00;98.40;;;;;;5072724;28;20263;-59
2024/01/17 12:28:05;;;;;;;5.87;5.23;;;;;;;;;;5067342;28;20553;-60
2024/01/17 12:30:32;;;;;;;10.60;5.07;;;;;;;;;;5068055;28;20267;-60
2024/01/17 12:32:59;;;;;;;5.30;4.80;;;;;;;;;;5077658;28;20679;-60
2024/01/17 12:35:26;;;;;;;5.77;5.00;;;;;;;;;;5080067;28;20256;-60
2024/01/17 12:37:53;;;;;;;6.10;4.00;;;;;;;;;;5068285;28;20259;-60
2024/01/17 12:40:20;;;;;;;6.83;5.10;;;;;;;;;;5071490;28;20692;-61
2024/01/17 12:42:49;;;;;;;6.93;4.87;;;3.00;87.40;;;;;;5062498;28;20292;-61
2024/01/17 12:45:16;;;;;;;5.17;4.50;;;3.30;88.40;;;;;;5076670;28;20640;-60
2024/01/17 12:47:42;;;;;;;4.30;3.90;;;3.40;88.40;;;;;;5070941;28;20204;-60
2024/01/17 12:50:11;;;;;;;7.10;4.60;;;;;;;;;;5077367;28;20214;-62